Time;durP1;ratioP1;P1;durP2;ratioP2;P2;SDS_P1;SDS_P2;PMS_P1;PMS_P2;Temp;Humidity;BMP_temperature;BMP_pressure;BME280_temperature;BME280_humidity;BME280_pressure;Samples;Min_cycle;Max_cycle;Signal;HPM_P1;HPM_P2
2021/05/20 00:02:10;;;;;;;0.90;0.90;;;;;;;9.97;73.93;97068.09;5033379;28;20226;-65
2021/05/20 00:04:35;;;;;;;0.80;0.80;;;;;;;10.01;74.05;97071.88;5034314;28;20253;-66
2021/05/20 00:07:01;;;;;;;1.07;1.00;;;;;;;10.05;74.36;97073.03;5033565;28;20206;-65
2021/05/20 00:09:27;;;;;;;0.90;0.90;;;;;;;9.95;74.64;97070.09;5033831;28;20269;-65
2021/05/20 00:11:53;;;;;;;1.20;1.10;;;;;;;10.03;74.33;97083.72;5033944;28;20611;-65
2021/05/20 00:14:18;;;;;;;0.93;0.93;;;;;;;10.13;74.17;97074.56;5033183;28;20252;-65
2021/05/20 00:16:43;;;;;;;1.00;1.00;;;;;;;10.16;73.75;97082.81;5034252;28;20179;-65
2021/05/20 00:19:09;;;;;;;1.10;1.10;;;;;;;9.98;74.85;97080.13;5033309;28;20198;-65
2021/05/20 00:21:34;;;;;;;3.17;1.13;;;;;;;10.17;74.23;97081.00;5034243;28;20190;-66
2021/05/20 00:24:00;;;;;;;1.13;1.10;;;;;;;10.09;74.34;97089.09;5033956;28;20221;-66
2021/05/20 00:26:25;;;;;;;1.00;1.00;;;;;;;10.03;75.12;97083.72;5032626;28;20186;-66
2021/05/20 00:28:50;;;;;;;1.00;1.00;;;;;;;9.98;74.71;97082.75;5017807;28;20178;-66
2021/05/20 00:31:16;;;;;;;0.93;0.90;;;;;;;9.98;75.44;97082.75;5033177;28;20194;-66
2021/05/20 00:33:41;;;;;;;0.90;0.90;;;;;;;9.97;75.58;97083.78;5033813;28;20195;-66
2021/05/20 00:36:07;;;;;;;1.10;1.10;;;;;;;9.93;75.60;97082.59;5032911;28;20269;-66
2021/05/20 00:38:33;;;;;;;0.97;0.97;;;;;;;9.93;75.25;97093.88;5015766;28;20182;-66
2021/05/20 00:41:01;;;;;;;1.00;1.00;;;;;;;10.00;75.49;97088.59;5034054;28;20237;-66
2021/05/20 00:43:28;;;;;;;1.00;1.00;;;;;;;9.79;75.67;97097.63;5032839;28;20694;-66
2021/05/20 00:45:54;;;;;;;1.13;1.13;;;;;;;9.85;75.95;97098.59;5033771;28;20233;-66
2021/05/20 00:48:19;;;;;;;0.83;0.83;;;;;;;9.84;75.92;97096.97;5015319;28;20300;-66
2021/05/20 00:50:45;;;;;;;1.00;0.90;;;;;;;9.75;76.78;97098.28;5033464;28;20346;-66
2021/05/20 00:53:11;;;;;;;1.10;1.10;;;;;;;9.71;76.72;97100.50;5032954;28;20267;-66
2021/05/20 00:55:38;;;;;;;1.20;1.20;;;;;;;9.59;77.71;97091.72;5033440;28;20187;-66
2021/05/20 00:58:05;;;;;;;1.30;1.20;;;;;;;9.69;76.85;97099.13;5033307;28;20187;-66
2021/05/20 01:00:31;;;;;;;1.87;1.43;;;;;;;9.58;77.81;97101.38;5033427;28;20226;-66
2021/05/20 01:02:57;;;;;;;2.00;1.50;;;;;;;9.48;78.18;97098.44;5033727;28;20582;-66
2021/05/20 01:05:22;;;;;;;0.80;0.80;;;;;;;9.62;77.26;97099.16;5032198;28;20186;-66
2021/05/20 01:07:48;;;;;;;1.00;1.00;;;;;;;9.73;77.00;97095.06;5033292;28;20201;-65
2021/05/20 01:10:14;;;;;;;1.20;1.10;;;;;;;9.63;77.75;97103.38;5014069;28;20348;-65
2021/05/20 01:12:40;;;;;;;1.17;1.13;;;;;;;9.69;77.35;97105.16;5032331;28;20199;-66
2021/05/20 01:15:21;;;;;;;1.10;1.00;;;;;;;9.59;77.79;97110.03;5032629;28;20706;-66
2021/05/20 01:17:51;;;;;;;1.07;0.97;;;;;;;9.64;78.69;97097.13;5033263;28;20248;-66
2021/05/20 01:20:19;;;;;;;1.27;1.23;;;;;;;9.64;79.49;97093.72;5032380;28;20206;-66
2021/05/20 01:22:44;;;;;;;1.07;1.07;;;;;;;9.42;80.35;97099.28;5014206;28;20197;-66
2021/05/20 01:25:10;;;;;;;1.20;1.10;;;;;;;9.51;80.21;97097.22;5032141;28;20198;-66
2021/05/20 01:27:37;;;;;;;1.07;1.07;;;;;;;9.39;81.24;97098.91;5015389;28;20256;-65
2021/05/20 01:30:03;;;;;;;1.33;1.23;;;;;;;9.39;81.92;97104.94;5033038;28;20274;-66
2021/05/20 01:32:29;;;;;;;2.70;1.30;;;;;;;9.44;81.60;97094.66;5032338;28;20221;-66
2021/05/20 01:34:56;;;;;;;1.00;1.00;;;;;;;9.44;81.23;97099.09;5032126;28;20654;-65
2021/05/20 01:37:21;;;;;;;1.20;1.20;;;;;;;9.37;81.59;97095.69;5014124;28;20658;-66
2021/05/20 01:39:47;;;;;;;1.10;1.10;;;;;;;9.33;81.72;97102.38;5032157;28;20234;-66
2021/05/20 01:42:12;;;;;;;1.03;1.00;;;;;;;9.26;81.89;97102.41;5031886;28;20651;-66
2021/05/20 01:44:37;;;;;;;1.27;1.27;;;;;;;9.39;80.58;97096.31;5032276;28;20186;-66
2021/05/20 01:47:05;;;;;;;1.20;1.20;;;;;;;9.42;80.63;97094.06;5032440;28;20183;-67
2021/05/20 01:49:30;;;;;;;1.00;1.00;;;;;;;9.40;80.64;97105.75;5032291;28;20519;-66
2021/05/20 01:51:55;;;;;;;1.10;1.10;;;;;;;9.43;80.26;97100.09;5032485;28;20241;-66
2021/05/20 01:54:21;;;;;;;1.10;1.10;;;;;;;9.31;80.56;97113.03;5031462;28;20189;-66
2021/05/20 01:56:46;;;;;;;1.27;1.23;;;;;;;9.25;80.88;97119.09;5032567;28;20643;-66
2021/05/20 01:59:12;;;;;;;1.30;1.30;;;;;;;9.25;80.59;97113.09;5031370;28;20660;-66
2021/05/20 02:01:37;;;;;;;1.20;1.20;;;;;;;9.20;81.07;97116.31;5032028;28;20594;-66
2021/05/20 02:04:04;;;;;;;1.10;1.10;;;;;;;9.14;81.76;97117.16;5031736;28;20327;-66
2021/05/20 02:06:29;;;;;;;1.10;1.10;;;;;;;9.20;81.17;97124.16;5031496;28;20190;-66
2021/05/20 02:08:54;;;;;;;1.10;1.10;;;;;;;9.14;81.54;97122.38;5031819;28;20185;-66
2021/05/20 02:11:20;;;;;;;1.83;1.13;;;;;;;9.27;80.99;97124.13;5030646;28;20194;-66
2021/05/20 02:13:45;;;;;;;1.10;1.10;;;;;;;9.15;81.08;97127.41;5031985;28;20182;-66
2021/05/20 02:16:11;;;;;;;1.30;1.20;;;;;;;9.18;81.52;97128.81;5030480;28;20186;-66
2021/05/20 02:18:38;;;;;;;1.30;1.30;;;;;;;9.14;81.86;97132.84;5032218;28;20190;-66
2021/05/20 02:21:04;;;;;;;1.37;1.00;;;;;;;9.09;81.77;97132.66;5031446;28;20194;-66
2021/05/20 02:23:30;;;;;;;1.10;1.10;;;;;;;9.02;81.87;97135.34;5015160;28;20190;-67
2021/05/20 02:25:55;;;;;;;1.27;1.17;;;;;;;8.95;81.65;97134.56;5032022;28;20293;-66
2021/05/20 02:28:21;;;;;;;1.00;1.00;;;;;;;9.02;81.20;97137.16;5031133;28;20225;-66
2021/05/20 02:30:46;;;;;;;1.00;1.00;;;;;;;9.03;81.18;97139.53;5031958;28;20194;-66
2021/05/20 02:33:12;;;;;;;1.27;1.03;;;;;;;8.91;81.36;97135.97;5030550;28;20190;-66
2021/05/20 02:35:38;;;;;;;0.93;0.93;;;;;;;8.90;81.30;97137.00;5013976;28;20210;-66
2021/05/20 02:38:04;;;;;;;1.03;1.03;;;;;;;8.88;80.84;97131.16;5031476;28;20214;-66
2021/05/20 02:40:29;;;;;;;1.30;1.30;;;;;;;8.90;81.34;97125.72;5030864;28;20683;-66
2021/05/20 02:42:55;;;;;;;0.97;0.97;;;;;;;8.98;80.78;97136.75;5031739;28;20179;-66
2021/05/20 02:45:22;;;;;;;0.90;0.90;;;;;;;8.94;80.98;97129.53;5030393;28;20754;-66
2021/05/20 02:47:49;;;;;;;1.13;1.00;;;;;;;8.79;81.71;97128.97;5031397;28;20187;-66
2021/05/20 02:50:17;;;;;;;1.67;1.30;;;;;;;8.90;81.25;97129.16;5030567;28;20194;-66
2021/05/20 02:52:44;;;;;;;1.20;1.20;;;;;;;8.96;81.07;97132.75;5031458;28;20269;-66
2021/05/20 02:55:15;;;;;;;3.00;1.20;;;;;;;8.88;81.25;97135.56;5025102;28;20187;-66
2021/05/20 02:57:52;;;;;;;1.20;1.20;;;;;;;8.81;81.62;97127.75;5030763;28;20204;-66
2021/05/20 03:00:19;;;;;;;1.20;1.20;;;;;;;8.71;81.89;97124.78;5030251;28;20202;-66
2021/05/20 03:02:47;;;;;;;1.30;1.20;;;;;;;8.67;82.36;97124.41;5031512;28;20265;-66
2021/05/20 03:05:12;;;;;;;1.07;1.07;;;;;;;8.74;82.13;97127.00;5030147;28;20232;-66
2021/05/20 03:07:38;;;;;;;1.53;1.43;;;;;;;8.76;82.18;97122.34;5030328;28;20187;-66
2021/05/20 03:10:06;;;;;;;1.10;1.10;;;;;;;8.73;82.01;97128.81;5030837;28;20191;-67
2021/05/20 03:12:31;;;;;;;1.00;1.00;;;;;;;8.85;81.51;97130.78;5030091;28;20194;-66
2021/05/20 03:14:57;;;;;;;1.20;1.20;;;;;;;8.81;81.76;97127.75;5031046;28;20269;-66
2021/05/20 03:17:23;;;;;;;1.30;1.20;;;;;;;8.80;82.17;97130.59;5030188;28;20945;-65
2021/05/20 03:19:49;;;;;;;1.00;1.00;;;;;;;8.77;82.24;97129.19;5030550;28;20209;-65
2021/05/20 03:22:14;;;;;;;1.00;1.00;;;;;;;8.76;82.13;97128.38;5030492;28;20187;-66
2021/05/20 03:24:40;;;;;;;1.00;1.00;;;;;;;8.73;82.12;97131.41;5031268;28;20190;-66
2021/05/20 03:27:05;;;;;;;0.87;0.87;;;;;;;8.71;82.00;97130.00;5030564;28;20222;-66
2021/05/20 03:29:31;;;;;;;1.43;1.33;;;;;;;8.84;82.14;97132.59;5030765;28;20190;-65
2021/05/20 03:31:56;;;;;;;1.20;1.20;;;;;;;8.88;81.22;97138.19;5031044;28;20281;-65
2021/05/20 03:34:21;;;;;;;1.20;1.03;;;;;;;8.76;82.23;97130.19;5033680;28;20190;-66
2021/05/20 03:36:47;;;;;;;1.10;1.10;;;;;;;8.84;81.53;97134.38;5034904;28;20240;-66
2021/05/20 03:39:12;;;;;;;1.10;1.10;;;;;;;8.72;82.43;97132.41;5034343;28;20529;-66
2021/05/20 03:41:38;;;;;;;1.17;1.17;;;;;;;8.63;83.21;97131.06;5034973;28;20214;-65
2021/05/20 03:44:03;;;;;;;1.63;1.13;;;;;;;8.64;83.41;97139.66;5034722;28;20552;-66
2021/05/20 03:46:29;;;;;;;1.67;1.20;;;;;;;8.61;84.50;97132.25;5033951;28;20178;-66
2021/05/20 03:48:55;;;;;;;1.30;1.30;;;;;;;8.60;85.97;97138.47;5034819;28;20608;-66
2021/05/20 03:51:20;;;;;;;1.17;1.17;;;;;;;8.66;86.48;97142.88;5033918;28;20319;-66
2021/05/20 03:53:46;;;;;;;1.10;1.10;;;;;;;8.63;87.27;97143.31;5034508;28;20565;-66
2021/05/20 03:56:11;;;;;;;1.20;1.20;;;;;;;8.55;88.60;97138.28;5033696;28;20190;-66
2021/05/20 03:58:36;;;;;;;1.90;1.20;;;;;;;8.62;87.92;97144.31;5034792;28;20187;-65
2021/05/20 04:01:02;;;;;;;1.27;1.20;;;;;;;8.45;90.69;97143.94;5034287;28;20226;-66
2021/05/20 04:03:29;;;;;;;1.30;1.30;;;;;;;8.55;90.63;97146.13;5033435;28;20364;-66
2021/05/20 04:06:02;;;;;;;1.40;1.30;;;;;;;8.60;89.80;97152.34;5034428;28;20206;-66
2021/05/20 04:08:28;;;;;;;1.27;1.23;;;;;;;8.55;90.94;97151.34;5018346;28;20171;-65
2021/05/20 04:10:54;;;;;;;1.00;1.00;;;;;;;8.65;91.40;97152.53;5016099;28;20545;-65
2021/05/20 04:13:40;;;;;;;1.10;1.10;;;;;;;8.68;90.79;97157.38;5033588;28;20186;-66
2021/05/20 04:16:07;;;;;;;1.10;1.10;;;;;;;8.56;91.07;97156.38;5033756;28;20198;-66
2021/05/20 04:18:33;;;;;;;1.00;1.00;;;;;;;8.70;89.88;97154.53;5034106;28;20182;-65
2021/05/20 04:20:59;;;;;;;1.33;1.27;;;;;;;8.74;89.64;97161.78;5034096;28;20602;-66
2021/05/20 04:23:25;;;;;;;1.40;1.30;;;;;;;8.72;90.01;97166.38;5033657;28;20190;-66
2021/05/20 04:25:51;;;;;;;1.80;1.10;;;;;;;8.79;89.37;97166.38;5034283;28;20258;-66
2021/05/20 04:28:17;;;;;;;1.03;1.00;;;;;;;8.78;88.16;97164.78;5033061;28;20190;-67
2021/05/20 04:30:44;;;;;;;0.93;0.93;;;;;;;8.88;87.94;97162.53;5033877;28;20191;-67
2021/05/20 04:33:09;;;;;;;1.10;1.10;;;;;;;8.94;87.95;97159.09;5033157;28;20269;-67
2021/05/20 04:35:36;;;;;;;1.00;1.00;;;;;;;9.06;86.70;97167.88;5033773;28;20282;-66
2021/05/20 04:38:03;;;;;;;1.00;1.00;;;;;;;9.09;87.49;97161.44;5033713;28;20183;-66
2021/05/20 04:40:28;;;;;;;1.20;1.20;;;;;;;9.07;87.29;97156.44;5033275;28;20203;-66
2021/05/20 04:42:54;;;;;;;0.90;0.90;;;;;;;9.17;86.08;97154.16;5015943;28;20244;-67
2021/05/20 04:45:20;;;;;;;1.53;1.03;;;;;;;9.23;86.06;97157.75;5031636;28;20628;-66
2021/05/20 04:47:46;;;;;;;1.33;1.30;;;;;;;9.41;85.46;97157.88;5033367;28;20269;-67
2021/05/20 04:50:13;;;;;;;1.00;1.00;;;;;;;9.55;83.86;97163.81;5032737;28;20205;-67
2021/05/20 04:52:40;;;;;;;1.07;1.07;;;;;;;9.71;83.56;97162.50;5033956;28;20643;-67
2021/05/20 04:55:07;;;;;;;1.20;1.10;;;;;;;10.05;83.31;97163.88;5032887;28;20185;-67
2021/05/20 04:57:32;;;;;;;1.00;1.00;;;;;;;10.68;80.14;97169.78;5033427;28;20628;-67
2021/05/20 04:59:57;;;;;;;1.00;1.00;;;;;;;11.05;78.10;97165.34;5032972;28;20216;-67
2021/05/20 05:02:23;;;;;;;0.93;0.93;;;;;;;11.46;76.54;97164.63;5032427;28;20229;-67
2021/05/20 05:04:48;;;;;;;0.90;0.90;;;;;;;11.49;75.62;97172.84;5033669;28;20187;-67
2021/05/20 05:07:13;;;;;;;0.70;0.70;;;;;;;11.49;74.52;97179.94;5032228;28;20183;-67
2021/05/20 05:09:39;;;;;;;0.90;0.90;;;;;;;11.33;75.67;97183.16;5032675;28;20664;-67
2021/05/20 05:12:05;;;;;;;0.87;0.87;;;;;;;11.16;75.24;97182.97;5033062;28;20186;-67
2021/05/20 05:14:30;;;;;;;0.83;0.83;;;;;;;10.96;75.77;97191.09;5032681;28;20726;-67
2021/05/20 05:16:55;;;;;;;7.73;0.90;;;;;;;10.80;77.01;97196.91;5033618;28;20189;-67
2021/05/20 05:19:21;;;;;;;0.80;0.80;;;;;;;10.61;77.92;97187.41;5014584;28;20186;-66
2021/05/20 05:21:47;;;;;;;0.80;0.80;;;;;;;10.88;77.56;97201.03;5033400;28;20210;-66
2021/05/20 05:24:12;;;;;;;0.90;0.90;;;;;;;10.94;75.97;97206.22;5032180;28;20202;-67
2021/05/20 05:26:37;;;;;;;0.90;0.90;;;;;;;10.97;76.57;97202.38;5032995;28;20550;-66
2021/05/20 05:29:03;;;;;;;0.80;0.80;;;;;;;10.81;76.67;97215.03;5033103;28;20225;-67
2021/05/20 05:31:32;;;;;;;2.17;0.97;;;;;;;10.93;76.32;97209.84;5014539;28;21031;-66
2021/05/20 05:33:57;;;;;;;0.80;0.80;;;;;;;10.81;76.12;97211.63;5032707;28;20201;-66
2021/05/20 05:36:24;;;;;;;0.90;0.90;;;;;;;10.87;76.62;97218.59;5014298;28;20643;-64
2021/05/20 05:38:49;;;;;;;0.90;0.90;;;;;;;10.88;76.66;97219.41;5031201;28;20217;-66
2021/05/20 05:41:14;;;;;;;0.97;0.97;;;;;;;10.96;76.70;97227.00;5031969;28;20630;-66
2021/05/20 05:43:40;;;;;;;1.00;0.90;;;;;;;10.83;76.61;97220.06;5033169;28;20198;-66
2021/05/20 05:46:05;;;;;;;0.93;0.93;;;;;;;10.88;76.43;97224.66;5032820;28;20542;-66
2021/05/20 05:48:31;;;;;;;0.90;0.90;;;;;;;11.03;76.54;97230.34;5032143;28;20654;-66
2021/05/20 05:50:57;;;;;;;0.87;0.87;;;;;;;10.99;75.83;97231.78;5031973;28;20251;-66
2021/05/20 05:53:24;;;;;;;1.00;1.00;;;;;;;10.84;76.63;97248.69;5031888;28;20178;-66
2021/05/20 05:55:50;;;;;;;0.80;0.80;;;;;;;10.82;76.91;97245.47;5031982;28;20644;-65
2021/05/20 05:58:15;;;;;;;1.00;1.00;;;;;;;10.91;76.27;97237.34;5031648;28;20187;-66
2021/05/20 06:00:40;;;;;;;1.00;1.00;;;;;;;11.02;75.72;97247.91;5013622;28;20217;-66
2021/05/20 06:03:06;;;;;;;2.77;1.00;;;;;;;11.03;75.61;97246.09;5032392;28;20191;-66
2021/05/20 06:05:31;;;;;;;1.10;1.00;;;;;;;11.02;75.92;97240.03;5031396;28;20723;-66
2021/05/20 06:07:57;;;;;;;0.90;0.90;;;;;;;10.95;76.10;97241.94;5031912;28;20682;-67
2021/05/20 06:10:23;;;;;;;1.23;1.00;;;;;;;11.06;75.91;97245.66;5030853;28;20221;-69
2021/05/20 06:12:49;;;;;;;0.90;0.90;;;;;;;11.15;75.35;97242.50;5032176;28;20534;-67
2021/05/20 06:15:15;;;;;;;1.30;1.30;;;;;;;11.39;74.77;97243.47;5013014;28;20186;-67
2021/05/20 06:17:40;;;;;;;1.90;1.73;;;;;;;11.56;74.88;97249.72;5032236;28;20201;-67
2021/05/20 06:20:07;;;;;;;1.17;1.17;;;;;;;11.81;74.54;97251.47;5031995;28;20306;-67
2021/05/20 06:22:33;;;;;;;0.80;0.80;;;;;;;12.00;73.46;97255.63;5031412;28;20198;-68
2021/05/20 06:24:59;;;;;;;1.90;0.90;;;;;;;11.92;73.29;97248.06;5031234;28;20636;-67
2021/05/20 06:27:27;;;;;;;1.13;1.10;;;;;;;11.62;73.21;97248.81;5031301;28;20186;-68
2021/05/20 06:29:54;;;;;;;0.87;0.87;;;;;;;11.39;74.97;97247.91;5031632;28;20182;-68
2021/05/20 06:32:20;;;;;;;1.10;1.10;;;;;;;11.27;75.44;97247.81;5031144;28;20187;-68
2021/05/20 06:34:45;;;;;;;0.80;0.80;;;;;;;11.40;75.24;97257.38;5031257;28;20609;-67
2021/05/20 06:37:11;;;;;;;0.90;0.90;;;;;;;10.97;76.52;97257.44;5030842;28;20189;-68
2021/05/20 06:39:36;;;;;;;0.90;0.90;;;;;;;10.87;76.22;97257.16;5031615;28;20559;-67
2021/05/20 06:42:01;;;;;;;1.10;1.10;;;;;;;10.89;76.05;97261.16;5031519;28;20186;-66
2021/05/20 06:44:27;;;;;;;0.80;0.80;;;;;;;11.09;75.05;97266.22;5030433;28;20191;-68
2021/05/20 06:46:52;;;;;;;0.97;0.97;;;;;;;11.29;75.29;97261.53;5030753;28;20178;-68
2021/05/20 06:49:18;;;;;;;0.80;0.80;;;;;;;11.38;74.76;97268.09;5030697;28;20192;-67
2021/05/20 06:51:43;;;;;;;0.90;0.90;;;;;;;11.57;73.76;97274.16;5031175;28;20178;-67
2021/05/20 06:54:09;;;;;;;0.83;0.83;;;;;;;11.53;73.83;97260.66;5031496;28;20191;-67
2021/05/20 06:56:34;;;;;;;1.33;1.33;;;;;;;11.50;73.21;97265.53;5029532;28;20248;-66
2021/05/20 07:01:47;;;;;;;1.03;1.03;;;;;;;11.61;72.80;97277.91;5029404;28;20241;-66
2021/05/20 07:04:14;;;;;;;1.17;1.17;;;;;;;12.12;73.40;97274.06;5030771;28;20219;-68
2021/05/20 07:06:40;;;;;;;1.20;1.10;;;;;;;12.87;69.81;97261.97;5030851;28;20182;-67
2021/05/20 07:09:06;;;;;;;0.90;0.90;;;;;;;13.21;67.28;97263.78;5030289;28;20200;-69
2021/05/20 07:11:32;;;;;;;0.80;0.80;;;;;;;13.70;64.90;97266.88;5030327;28;20293;-68
2021/05/20 07:13:58;;;;;;;0.70;0.70;;;;;;;13.65;64.33;97261.53;5013523;28;20190;-67
2021/05/20 07:16:25;;;;;;;0.70;0.70;;;;;;;13.40;64.05;97267.06;5029965;28;20193;-67
2021/05/20 07:18:50;;;;;;;1.13;1.03;;;;;;;13.65;63.65;97264.94;5031094;28;20332;-68
2021/05/20 07:21:16;;;;;;;0.80;0.80;;;;;;;13.68;62.93;97266.31;5030447;28;20698;-68
2021/05/20 07:23:41;;;;;;;0.80;0.80;;;;;;;13.46;63.17;97265.34;5030684;28;20595;-67
2021/05/20 07:26:06;;;;;;;1.77;0.80;;;;;;;13.17;63.56;97259.19;5030756;28;20182;-68
2021/05/20 07:28:32;;;;;;;0.70;0.70;;;;;;;13.37;63.27;97266.75;5030430;28;20808;-68
2021/05/20 07:30:57;;;;;;;0.77;0.77;;;;;;;13.11;62.84;97260.91;5013254;28;20224;-68
2021/05/20 07:33:24;;;;;;;0.70;0.70;;;;;;;13.19;63.28;97275.56;5030245;28;20190;-67
2021/05/20 07:35:49;;;;;;;0.80;0.80;;;;;;;13.40;63.42;97269.69;5030813;28;20210;-68
2021/05/20 07:38:15;;;;;;;0.70;0.70;;;;;;;13.11;65.14;97266.16;5030426;28;20229;-68
2021/05/20 07:40:40;;;;;;;0.70;0.70;;;;;;;13.13;65.20;97276.50;5030931;28;20199;-67
2021/05/20 07:43:05;;;;;;;0.80;0.80;;;;;;;13.23;65.13;97269.63;5030734;28;20298;-68
2021/05/20 07:45:31;;;;;;;0.80;0.80;;;;;;;13.04;65.59;97272.59;5012146;28;20669;-68
2021/05/20 07:47:56;;;;;;;0.77;0.77;;;;;;;13.25;63.87;97282.56;5030929;28;20179;-67
2021/05/20 07:50:22;;;;;;;1.00;0.90;;;;;;;13.34;63.43;97281.16;5030359;28;20528;-67
2021/05/20 07:52:48;;;;;;;0.63;0.63;;;;;;;13.61;63.38;97276.97;5031034;28;20662;-67
2021/05/20 07:55:14;;;;;;;0.70;0.70;;;;;;;13.80;62.42;97280.25;5030492;28;20518;-68
2021/05/20 07:57:40;;;;;;;0.70;0.70;;;;;;;13.99;61.73;97278.22;5030941;28;20186;-67
2021/05/20 08:00:08;;;;;;;1.00;0.90;;;;;;;14.25;61.35;97282.13;5030668;28;20198;-68
2021/05/20 08:02:40;;;;;;;4.07;0.80;;;;;;;14.67;60.30;97283.38;5029865;28;20222;-65
2021/05/20 08:05:10;;;;;;;0.90;0.90;;;;;;;14.80;60.39;97269.88;5030816;28;20194;-64
2021/05/20 08:07:50;;;;;;;0.70;0.70;;;;;;;14.62;58.97;97275.38;5029107;28;20325;-66
2021/05/20 08:12:44;;;;;;;0.70;0.70;;;;;;;14.30;59.11;97277.72;5030355;28;20186;-65
2021/05/20 08:15:11;;;;;;;1.07;1.07;;;;;;;13.99;59.67;97279.00;5030554;28;20236;-66
2021/05/20 08:17:37;;;;;;;0.80;0.80;;;;;;;14.16;59.51;97279.84;5029659;28;20191;-65
2021/05/20 08:20:04;;;;;;;0.60;0.60;;;;;;;14.22;59.28;97275.47;5034194;28;20721;-65
2021/05/20 08:22:30;;;;;;;0.80;0.80;;;;;;;14.23;58.59;97281.53;5033227;28;20217;-67
2021/05/20 08:24:57;;;;;;;0.70;0.70;;;;;;;13.90;59.09;97272.53;5033948;28;20632;-66
2021/05/20 08:27:22;;;;;;;0.60;0.60;;;;;;;13.78;58.79;97274.41;5033600;28;20672;-66
2021/05/20 08:29:48;;;;;;;0.77;0.60;;;;;;;13.93;58.79;97269.41;5034135;28;20328;-66
2021/05/20 08:32:13;;;;;;;0.70;0.70;;;;;;;13.34;61.37;97273.25;5033595;28;20198;-67
2021/05/20 08:34:39;;;;;;;0.53;0.53;;;;;;;13.30;61.33;97256.34;5033591;28;20253;-67
2021/05/20 08:37:05;;;;;;;0.60;0.60;;;;;;;13.23;62.14;97258.28;5034130;28;20175;-66
2021/05/20 08:39:30;;;;;;;0.73;0.73;;;;;;;12.95;62.20;97264.22;5033268;28;20765;-66
2021/05/20 08:41:56;;;;;;;0.60;0.60;;;;;;;13.19;61.80;97268.47;5034514;28;20206;-66
2021/05/20 08:44:27;;;;;;;0.90;0.70;;;;;;;13.28;61.66;97264.44;5033320;28;20175;-67
2021/05/20 08:46:56;;;;;;;0.67;0.67;;;;;;;13.29;60.86;97263.44;5033815;28;20260;-66
2021/05/20 08:49:22;;;;;;;0.60;0.60;;;;;;;13.51;61.09;97268.88;5033150;28;20244;-66
2021/05/20 08:51:47;;;;;;;0.50;0.50;;;;;;;13.56;60.68;97262.91;5033359;28;20221;-66
2021/05/20 08:54:13;;;;;;;1.53;0.60;;;;;;;13.62;59.17;97270.69;5033431;28;20178;-67
2021/05/20 08:56:46;;;;;;;0.50;0.50;;;;;;;13.46;60.06;97265.34;5032886;28;20196;-66
2021/05/20 08:59:13;;;;;;;0.57;0.57;;;;;;;13.60;59.75;97259.56;5033595;28;20194;-66
2021/05/20 09:01:40;;;;;;;0.63;0.63;;;;;;;13.85;59.05;97261.91;5032544;28;20230;-66
2021/05/20 09:04:07;;;;;;;0.73;0.73;;;;;;;14.27;58.75;97256.28;5019920;28;20198;-65
2021/05/20 09:06:48;;;;;;;0.60;0.60;;;;;;;14.75;57.50;97261.06;5032399;28;20642;-65
2021/05/20 09:09:24;;;;;;;0.60;0.60;;;;;;;15.25;56.73;97258.34;5032455;28;20355;-65
2021/05/20 09:11:56;;;;;;;0.63;0.63;;;;;;;15.22;55.86;97256.97;5033563;28;20186;-64
2021/05/20 09:14:30;;;;;;;0.50;0.50;;;;;;;15.03;56.44;97265.44;5032319;28;20189;-64
2021/05/20 09:17:18;;;;;;;0.60;0.60;;;;;;;15.02;55.45;97267.28;5033348;28;20237;-64
2021/05/20 09:19:51;;;;;;;0.80;0.80;;;;;;;14.87;56.13;97265.22;5032547;28;20648;-64
2021/05/20 09:22:17;;;;;;;0.70;0.70;;;;;;;14.80;54.88;97267.22;5033612;28;20179;-66
2021/05/20 09:24:53;;;;;;;0.57;0.57;;;;;;;14.68;55.26;97270.97;5032944;28;20198;-65
2021/05/20 09:27:26;;;;;;;0.87;0.67;;;;;;;15.04;54.58;97269.69;5032687;28;20202;-64
2021/05/20 09:30:06;;;;;;;1.13;0.50;;;;;;;15.21;53.42;97268.59;5032271;28;20292;-64
2021/05/20 09:32:40;;;;;;;0.60;0.60;;;;;;;15.05;52.84;97269.41;5031431;28;20549;-64
2021/05/20 09:35:06;;;;;;;0.60;0.50;;;;;;;15.32;52.43;97277.47;5032776;28;20553;-65
2021/05/20 09:37:35;;;;;;;0.40;0.40;;;;;;;15.33;52.82;97276.41;5031963;28;20546;-65
2021/05/20 09:40:04;;;;;;;0.63;0.63;;;;;;;15.33;52.98;97276.41;5032689;28;20221;-67
2021/05/20 09:42:31;;;;;;;0.50;0.50;;;;;;;15.17;53.20;97272.75;5031813;28;20187;-66
2021/05/20 09:45:10;;;;;;;0.60;0.60;;;;;;;14.87;53.97;97277.63;5032432;28;20241;-65
2021/05/20 09:47:37;;;;;;;0.67;0.67;;;;;;;14.42;54.50;97277.69;5032182;28;20186;-65
2021/05/20 09:50:18;;;;;;;0.50;0.50;;;;;;;14.50;55.41;97278.09;5032818;28;20197;-65
2021/05/20 09:52:43;;;;;;;0.50;0.50;;;;;;;14.75;55.23;97269.00;5032604;28;20635;-65
2021/05/20 09:55:20;;;;;;;1.57;1.10;;;;;;;14.92;54.42;97267.94;5013239;28;20222;-65
2021/05/20 09:57:45;;;;;;;0.57;0.57;;;;;;;14.68;54.41;97268.34;5025792;28;20262;-65
2021/05/20 10:00:15;;;;;;;0.73;0.73;;;;;;;14.79;54.04;97262.19;5031772;28;20222;-65
2021/05/20 10:02:41;;;;;;;1.67;1.13;;;;;;;14.98;53.47;97263.53;5031591;28;20226;-65
2021/05/20 10:05:28;;;;;;;4.27;1.80;;;;;;;15.13;53.38;97270.84;5016549;28;20281;-65
2021/05/20 10:07:54;;;;;;;2.27;1.27;;;;;;;15.03;52.58;97270.72;5031152;28;20190;-63
2021/05/20 10:10:20;;;;;;;0.97;0.60;;;;;;;15.24;52.90;97273.41;5013843;28;20182;-66
2021/05/20 10:12:46;;;;;;;4.07;2.17;;;;;;;15.27;52.79;97266.81;5030837;28;20313;-65
2021/05/20 10:15:17;;;;;;;11.33;3.63;;;;;;;15.39;52.51;97260.38;5012222;28;20190;-65
2021/05/20 10:17:43;;;;;;;6.53;2.63;;;;;;;15.37;52.05;97267.78;5015759;28;20272;-66
2021/05/20 10:20:11;;;;;;;0.60;0.60;;;;;;;15.26;52.39;97270.53;5031427;28;20593;-66
2021/05/20 10:22:37;;;;;;;0.57;0.57;;;;;;;15.31;52.11;97260.81;5030970;28;20297;-65
2021/05/20 10:25:04;;;;;;;0.50;0.50;;;;;;;15.10;52.61;97256.28;5031976;28;20190;-65
2021/05/20 10:27:30;;;;;;;0.50;0.50;;;;;;;15.37;51.75;97251.13;5031114;28;20609;-65
2021/05/20 10:29:59;;;;;;;0.60;0.60;;;;;;;15.50;51.49;97250.75;5031026;28;20191;-65
2021/05/20 10:32:27;;;;;;;0.70;0.70;;;;;;;15.47;52.52;97242.50;5031714;28;20190;-65
2021/05/20 10:35:19;;;;;;;0.60;0.60;;;;;;;15.40;52.10;97243.50;5031362;28;20190;-65
2021/05/20 10:37:53;;;;;;;0.60;0.60;;;;;;;15.59;51.46;97244.03;5024265;28;20183;-66
2021/05/20 10:40:25;;;;;;;1.23;0.43;;;;;;;15.61;51.22;97241.91;5030386;28;20659;-67
2021/05/20 10:43:08;;;;;;;0.50;0.50;;;;;;;15.52;50.77;97237.31;5029972;28;20180;-66
2021/05/20 10:45:35;;;;;;;0.77;0.60;;;;;;;15.47;51.46;97232.75;5025266;28;20187;-65
2021/05/20 10:48:04;;;;;;;0.50;0.50;;;;;;;15.03;50.58;97231.13;5031240;28;20261;-65
2021/05/20 10:50:57;;;;;;;0.50;0.50;;;;;;;15.29;50.49;97244.41;5030492;28;20206;-65
2021/05/20 10:53:38;;;;;;;0.70;0.70;;;;;;;14.99;51.20;97241.34;5019293;28;20226;-65
2021/05/20 10:56:08;;;;;;;0.53;0.53;;;;;;;15.18;50.77;97236.59;5031184;28;20178;-66
2021/05/20 10:58:36;;;;;;;0.50;0.50;;;;;;;15.35;48.65;97234.72;5020547;28;20240;-65
2021/05/20 11:01:02;;;;;;;0.40;0.40;;;;;;;15.69;48.62;97240.69;5022684;28;20626;-65
2021/05/20 11:03:46;;;;;;;0.50;0.50;;;;;;;15.82;48.32;97232.38;5012425;28;20265;-65
2021/05/20 11:06:15;;;;;;;0.50;0.50;;;;;;;15.98;48.11;97230.69;5012950;28;20535;-65
2021/05/20 11:08:46;;;;;;;0.40;0.40;;;;;;;16.35;47.49;97223.63;5029189;28;20282;-64
2021/05/20 11:11:20;;;;;;;0.50;0.50;;;;;;;16.63;47.27;97225.97;5030309;28;20273;-65
2021/05/20 11:13:46;;;;;;;0.40;0.40;;;;;;;16.63;46.08;97215.41;5022673;28;20602;-65
2021/05/20 11:16:38;;;;;;;0.35;0.35;;;;;;;16.40;45.65;97220.19;5030382;28;20244;-66
2021/05/20 11:19:30;;;;;;;0.50;0.50;;;;;;;16.42;45.78;97212.81;5030894;28;20607;-65
2021/05/20 11:21:59;;;;;;;0.57;0.57;;;;;;;16.26;46.47;97205.81;5030564;28;20179;-65
2021/05/20 11:24:35;;;;;;;0.40;0.40;;;;;;;16.08;47.55;97207.78;5029494;28;20193;-65
2021/05/20 11:27:00;;;;;;;0.80;0.50;;;;;;;16.23;47.27;97207.09;5021163;28;20210;-65
2021/05/20 11:29:37;;;;;;;0.50;0.50;;;;;;;16.11;46.33;97196.69;5029438;28;20213;-65
2021/05/20 11:37:33;;;;;;;0.50;0.50;;;;;;;16.14;48.13;97198.84;5029696;28;20183;-66
2021/05/20 11:39:59;;;;;;;0.40;0.40;;;;;;;16.26;47.76;97197.88;5002919;28;20198;-65
2021/05/20 11:42:27;;;;;;;0.40;0.40;;;;;;;16.15;47.16;97194.34;5010970;28;20576;-65
2021/05/20 11:44:54;;;;;;;0.40;0.40;;;;;;;15.85;47.91;97196.72;5028824;28;20179;-64
2021/05/20 11:47:22;;;;;;;0.30;0.30;;;;;;;15.56;48.99;97196.13;5028924;28;20193;-66
2021/05/20 11:49:47;;;;;;;0.60;0.60;;;;;;;15.29;49.70;97202.16;5030321;28;20205;-65